sensor_id;sensor_type;location;lat;lon;timestamp;temperature;humidity
52030;DHT22;38043;53.224;6.580;2023-10-31T00:01:04;10.30;99.90
52030;DHT22;38043;53.224;6.580;2023-10-31T00:03:31;10.50;99.90
52030;DHT22;38043;53.224;6.580;2023-10-31T00:05:57;10.30;99.90
52030;DHT22;38043;53.224;6.580;2023-10-31T00:08:24;10.30;99.90
52030;DHT22;38043;53.224;6.580;2023-10-31T00:10:50;10.30;99.90
52030;DHT22;38043;53.224;6.580;2023-10-31T00:13:15;10.20;99.90
52030;DHT22;38043;53.224;6.580;2023-10-31T00:15:41;10.20;99.90
52030;DHT22;38043;53.224;6.580;2023-10-31T00:18:07;10.30;99.90
52030;DHT22;38043;53.224;6.580;2023-10-31T00:20:35;10.20;99.90
52030;DHT22;38043;53.224;6.580;2023-10-31T00:23:00;10.20;99.90
52030;DHT22;38043;53.224;6.580;2023-10-31T00:25:26;10.20;99.90
52030;DHT22;38043;53.224;6.580;2023-10-31T00:27:52;10.20;99.90
52030;DHT22;38043;53.224;6.580;2023-10-31T00:30:17;10.20;99.90
52030;DHT22;38043;53.224;6.580;2023-10-31T00:32:43;10.30;99.90
52030;DHT22;38043;53.224;6.580;2023-10-31T00:35:08;10.20;99.90
52030;DHT22;38043;53.224;6.580;2023-10-31T00:37:34;10.20;99.90
52030;DHT22;38043;53.224;6.580;2023-10-31T00:40:00;10.30;99.90
52030;DHT22;38043;53.224;6.580;2023-10-31T00:42:25;10.20;99.90
52030;DHT22;38043;53.224;6.580;2023-10-31T00:44:51;10.30;99.90
52030;DHT22;38043;53.224;6.580;2023-10-31T00:47:17;10.30;99.90
52030;DHT22;38043;53.224;6.580;2023-10-31T00:49:43;10.20;99.90
52030;DHT22;38043;53.224;6.580;2023-10-31T00:52:08;10.40;99.90
52030;DHT22;38043;53.224;6.580;2023-10-31T00:54:34;10.30;99.90
52030;DHT22;38043;53.224;6.580;2023-10-31T00:57:00;10.30;99.90
52030;DHT22;38043;53.224;6.580;2023-10-31T00:59:25;10.30;99.90
52030;DHT22;38043;53.224;6.580;2023-10-31T01:01:51;10.20;99.90
52030;DHT22;38043;53.224;6.580;2023-10-31T01:04:16;10.20;99.90
52030;DHT22;38043;53.224;6.580;2023-10-31T01:06:43;10.20;99.90
52030;DHT22;38043;53.224;6.580;2023-10-31T01:09:09;10.20;99.90
52030;DHT22;38043;53.224;6.580;2023-10-31T01:11:35;10.20;99.90
52030;DHT22;38043;53.224;6.580;2023-10-31T01:14:01;10.20;99.90
52030;DHT22;38043;53.224;6.580;2023-10-31T01:16:26;10.20;99.90
52030;DHT22;38043;53.224;6.580;2023-10-31T01:18:52;10.10;99.90
52030;DHT22;38043;53.224;6.580;2023-10-31T01:21:18;10.10;99.90
52030;DHT22;38043;53.224;6.580;2023-10-31T01:23:44;10.10;99.90
52030;DHT22;38043;53.224;6.580;2023-10-31T01:26:09;10.00;99.90
52030;DHT22;38043;53.224;6.580;2023-10-31T01:28:35;10.10;99.90
52030;DHT22;38043;53.224;6.580;2023-10-31T01:31:01;10.00;99.90
52030;DHT22;38043;53.224;6.580;2023-10-31T01:33:27;10.00;99.90
52030;DHT22;38043;53.224;6.580;2023-10-31T01:35:52;10.00;99.90
52030;DHT22;38043;53.224;6.580;2023-10-31T01:38:18;10.00;99.90
52030;DHT22;38043;53.224;6.580;2023-10-31T01:40:44;10.00;99.90
52030;DHT22;38043;53.224;6.580;2023-10-31T01:43:11;10.00;99.90
52030;DHT22;38043;53.224;6.580;2023-10-31T01:45:36;10.00;99.90
52030;DHT22;38043;53.224;6.580;2023-10-31T01:48:02;10.00;99.90
52030;DHT22;38043;53.224;6.580;2023-10-31T01:50:28;10.00;99.90
52030;DHT22;38043;53.224;6.580;2023-10-31T01:52:54;10.00;99.90
52030;DHT22;38043;53.224;6.580;2023-10-31T01:55:20;9.90;99.90
52030;DHT22;38043;53.224;6.580;2023-10-31T01:57:48;9.90;99.90
52030;DHT22;38043;53.224;6.580;2023-10-31T02:00:14;9.90;99.90
52030;DHT22;38043;53.224;6.580;2023-10-31T02:02:40;9.80;99.90
52030;DHT22;38043;53.224;6.580;2023-10-31T02:05:10;9.80;99.90
52030;DHT22;38043;53.224;6.580;2023-10-31T02:07:37;9.80;99.90
52030;DHT22;38043;53.224;6.580;2023-10-31T02:10:05;9.80;99.90
52030;DHT22;38043;53.224;6.580;2023-10-31T02:12:32;9.80;99.90
52030;DHT22;38043;53.224;6.580;2023-10-31T02:14:59;9.80;99.90
52030;DHT22;38043;53.224;6.580;2023-10-31T02:17:25;9.70;99.90
52030;DHT22;38043;53.224;6.580;2023-10-31T02:19:50;9.70;99.90
52030;DHT22;38043;53.224;6.580;2023-10-31T02:22:16;9.70;99.90
52030;DHT22;38043;53.224;6.580;2023-10-31T02:24:42;9.80;99.90
52030;DHT22;38043;53.224;6.580;2023-10-31T02:27:07;9.70;99.90
52030;DHT22;38043;53.224;6.580;2023-10-31T02:29:33;9.70;99.90
52030;DHT22;38043;53.224;6.580;2023-10-31T02:31:59;9.70;99.90
52030;DHT22;38043;53.224;6.580;2023-10-31T02:34:24;9.70;99.90
52030;DHT22;38043;53.224;6.580;2023-10-31T02:36:51;9.70;99.90
52030;DHT22;38043;53.224;6.580;2023-10-31T02:39:17;9.70;99.90
52030;DHT22;38043;53.224;6.580;2023-10-31T02:41:43;9.70;99.90
52030;DHT22;38043;53.224;6.580;2023-10-31T02:44:09;9.70;99.90
52030;DHT22;38043;53.224;6.580;2023-10-31T02:46:38;9.70;99.90
52030;DHT22;38043;53.224;6.580;2023-10-31T02:49:04;9.80;99.90
52030;DHT22;38043;53.224;6.580;2023-10-31T02:51:29;9.70;99.90
52030;DHT22;38043;53.224;6.580;2023-10-31T02:53:55;9.80;99.90
52030;DHT22;38043;53.224;6.580;2023-10-31T02:56:21;9.80;99.90
52030;DHT22;38043;53.224;6.580;2023-10-31T02:58:46;9.80;99.90
52030;DHT22;38043;53.224;6.580;2023-10-31T03:01:15;9.70;99.90
52030;DHT22;38043;53.224;6.580;2023-10-31T03:03:40;9.70;99.90
52030;DHT22;38043;53.224;6.580;2023-10-31T03:06:06;9.70;99.90
52030;DHT22;38043;53.224;6.580;2023-10-31T03:08:32;9.70;99.90
52030;DHT22;38043;53.224;6.580;2023-10-31T03:10:57;9.70;99.90
52030;DHT22;38043;53.224;6.580;2023-10-31T03:13:23;9.70;99.90
52030;DHT22;38043;53.224;6.580;2023-10-31T03:15:49;9.70;99.90
52030;DHT22;38043;53.224;6.580;2023-10-31T03:18:15;9.70;99.90
52030;DHT22;38043;53.224;6.580;2023-10-31T03:20:43;10.50;99.90
52030;DHT22;38043;53.224;6.580;2023-10-31T03:23:09;9.80;99.90
52030;DHT22;38043;53.224;6.580;2023-10-31T03:25:36;9.80;99.90
52030;DHT22;38043;53.224;6.580;2023-10-31T03:28:02;9.80;99.90
52030;DHT22;38043;53.224;6.580;2023-10-31T03:30:28;9.70;99.90
52030;DHT22;38043;53.224;6.580;2023-10-31T03:32:54;9.70;99.90
52030;DHT22;38043;53.224;6.580;2023-10-31T03:35:19;9.70;99.90
52030;DHT22;38043;53.224;6.580;2023-10-31T03:37:45;9.70;99.90
52030;DHT22;38043;53.224;6.580;2023-10-31T03:40:14;9.70;99.90
52030;DHT22;38043;53.224;6.580;2023-10-31T03:42:40;9.70;99.90
52030;DHT22;38043;53.224;6.580;2023-10-31T03:45:09;9.70;99.90
52030;DHT22;38043;53.224;6.580;2023-10-31T03:47:35;9.70;99.90
52030;DHT22;38043;53.224;6.580;2023-10-31T03:50:01;9.70;99.90
52030;DHT22;38043;53.224;6.580;2023-10-31T03:52:27;9.80;99.90
52030;DHT22;38043;53.224;6.580;2023-10-31T03:54:53;9.80;99.90
52030;DHT22;38043;53.224;6.580;2023-10-31T03:57:18;9.80;99.90
52030;DHT22;38043;53.224;6.580;2023-10-31T03:59:44;10.60;99.90
52030;DHT22;38043;53.224;6.580;2023-10-31T04:02:12;9.80;99.90
52030;DHT22;38043;53.224;6.580;2023-10-31T04:04:38;9.90;99.90
52030;DHT22;38043;53.224;6.580;2023-10-31T04:07:04;9.80;99.90
52030;DHT22;38043;53.224;6.580;2023-10-31T04:09:30;9.80;99.90
52030;DHT22;38043;53.224;6.580;2023-10-31T04:11:56;9.80;99.90
52030;DHT22;38043;53.224;6.580;2023-10-31T04:14:22;9.90;99.90
52030;DHT22;38043;53.224;6.580;2023-10-31T04:16:47;9.90;99.90
52030;DHT22;38043;53.224;6.580;2023-10-31T04:19:13;9.80;99.90
52030;DHT22;38043;53.224;6.580;2023-10-31T04:21:39;9.90;99.90
52030;DHT22;38043;53.224;6.580;2023-10-31T04:24:05;9.90;99.90
52030;DHT22;38043;53.224;6.580;2023-10-31T04:26:31;9.90;99.90
52030;DHT22;38043;53.224;6.580;2023-10-31T04:28:57;9.90;99.90
52030;DHT22;38043;53.224;6.580;2023-10-31T04:31:22;9.90;99.90
52030;DHT22;38043;53.224;6.580;2023-10-31T04:33:48;10.40;99.90
52030;DHT22;38043;53.224;6.580;2023-10-31T04:36:14;10.70;99.90
52030;DHT22;38043;53.224;6.580;2023-10-31T04:38:40;10.00;99.90
52030;DHT22;38043;53.224;6.580;2023-10-31T04:41:07;10.00;99.90
52030;DHT22;38043;53.224;6.580;2023-10-31T04:43:36;10.00;99.90
52030;DHT22;38043;53.224;6.580;2023-10-31T04:46:02;10.00;99.90
52030;DHT22;38043;53.224;6.580;2023-10-31T04:48:27;9.90;99.90
52030;DHT22;38043;53.224;6.580;2023-10-31T04:50:53;10.00;99.90
52030;DHT22;38043;53.224;6.580;2023-10-31T04:53:18;9.90;99.90
52030;DHT22;38043;53.224;6.580;2023-10-31T04:55:44;10.00;99.90
52030;DHT22;38043;53.224;6.580;2023-10-31T04:58:10;10.00;99.90
52030;DHT22;38043;53.224;6.580;2023-10-31T05:00:35;9.90;99.90
52030;DHT22;38043;53.224;6.580;2023-10-31T05:03:01;9.90;99.90
52030;DHT22;38043;53.224;6.580;2023-10-31T05:05:28;10.50;99.90
52030;DHT22;38043;53.224;6.580;2023-10-31T05:07:53;9.90;99.90
52030;DHT22;38043;53.224;6.580;2023-10-31T05:10:19;9.90;99.90
52030;DHT22;38043;53.224;6.580;2023-10-31T05:12:45;9.90;99.90
52030;DHT22;38043;53.224;6.580;2023-10-31T05:15:10;9.90;99.90
52030;DHT22;38043;53.224;6.580;2023-10-31T05:17:36;10.00;99.90
52030;DHT22;38043;53.224;6.580;2023-10-31T05:20:02;10.00;99.90
52030;DHT22;38043;53.224;6.580;2023-10-31T05:22:27;10.00;99.90
52030;DHT22;38043;53.224;6.580;2023-10-31T05:24:53;10.00;99.90
52030;DHT22;38043;53.224;6.580;2023-10-31T05:27:19;10.00;99.90
52030;DHT22;38043;53.224;6.580;2023-10-31T05:29:45;10.00;99.90
52030;DHT22;38043;53.224;6.580;2023-10-31T05:32:10;10.40;99.90
52030;DHT22;38043;53.224;6.580;2023-10-31T05:34:36;10.10;99.90
52030;DHT22;38043;53.224;6.580;2023-10-31T05:37:02;10.00;99.90
52030;DHT22;38043;53.224;6.580;2023-10-31T05:39:30;10.00;99.90
52030;DHT22;38043;53.224;6.580;2023-10-31T05:41:59;10.00;99.90
52030;DHT22;38043;53.224;6.580;2023-10-31T05:44:24;10.00;99.90
52030;DHT22;38043;53.224;6.580;2023-10-31T05:46:50;10.00;99.90
52030;DHT22;38043;53.224;6.580;2023-10-31T05:49:16;10.20;99.90
52030;DHT22;38043;53.224;6.580;2023-10-31T05:51:42;10.00;99.90
52030;DHT22;38043;53.224;6.580;2023-10-31T05:54:09;10.00;99.90
52030;DHT22;38043;53.224;6.580;2023-10-31T05:56:35;10.00;99.90
52030;DHT22;38043;53.224;6.580;2023-10-31T05:59:00;10.30;99.90
52030;DHT22;38043;53.224;6.580;2023-10-31T06:01:26;10.20;99.90
52030;DHT22;38043;53.224;6.580;2023-10-31T06:03:55;10.00;99.90
52030;DHT22;38043;53.224;6.580;2023-10-31T06:06:23;10.00;99.90
52030;DHT22;38043;53.224;6.580;2023-10-31T06:08:49;10.00;99.90
52030;DHT22;38043;53.224;6.580;2023-10-31T06:11:17;10.00;99.90
52030;DHT22;38043;53.224;6.580;2023-10-31T06:13:43;10.00;99.90
52030;DHT22;38043;53.224;6.580;2023-10-31T06:16:09;9.90;99.90
52030;DHT22;38043;53.224;6.580;2023-10-31T06:18:37;9.90;99.90
52030;DHT22;38043;53.224;6.580;2023-10-31T06:21:03;10.00;99.90
52030;DHT22;38043;53.224;6.580;2023-10-31T06:23:29;10.00;99.90
52030;DHT22;38043;53.224;6.580;2023-10-31T06:25:54;10.00;99.90
52030;DHT22;38043;53.224;6.580;2023-10-31T06:28:20;10.00;99.90
52030;DHT22;38043;53.224;6.580;2023-10-31T06:30:46;10.00;99.90
52030;DHT22;38043;53.224;6.580;2023-10-31T06:33:12;10.40;99.90
52030;DHT22;38043;53.224;6.580;2023-10-31T06:35:37;10.00;99.90
52030;DHT22;38043;53.224;6.580;2023-10-31T06:38:03;10.80;99.90
52030;DHT22;38043;53.224;6.580;2023-10-31T06:40:29;10.00;99.90
52030;DHT22;38043;53.224;6.580;2023-10-31T06:42:54;10.00;99.90
52030;DHT22;38043;53.224;6.580;2023-10-31T06:45:23;10.10;99.90
52030;DHT22;38043;53.224;6.580;2023-10-31T06:47:49;11.00;99.90
52030;DHT22;38043;53.224;6.580;2023-10-31T06:50:14;10.10;99.90
52030;DHT22;38043;53.224;6.580;2023-10-31T06:52:40;10.00;99.90
52030;DHT22;38043;53.224;6.580;2023-10-31T06:55:06;10.10;99.90
52030;DHT22;38043;53.224;6.580;2023-10-31T06:57:31;10.10;99.90
52030;DHT22;38043;53.224;6.580;2023-10-31T06:59:58;10.10;99.90
52030;DHT22;38043;53.224;6.580;2023-10-31T07:02:23;10.40;99.90
52030;DHT22;38043;53.224;6.580;2023-10-31T07:04:51;10.10;99.90
52030;DHT22;38043;53.224;6.580;2023-10-31T07:07:16;10.40;99.90
52030;DHT22;38043;53.224;6.580;2023-10-31T07:09:42;10.40;99.90
52030;DHT22;38043;53.224;6.580;2023-10-31T07:12:08;10.10;99.90
52030;DHT22;38043;53.224;6.580;2023-10-31T07:14:33;10.10;99.90
52030;DHT22;38043;53.224;6.580;2023-10-31T07:16:59;10.10;99.90
52030;DHT22;38043;53.224;6.580;2023-10-31T07:19:25;10.10;99.90
52030;DHT22;38043;53.224;6.580;2023-10-31T07:21:50;10.10;99.90
52030;DHT22;38043;53.224;6.580;2023-10-31T07:24:16;10.10;99.90
52030;DHT22;38043;53.224;6.580;2023-10-31T07:26:42;10.70;99.90
52030;DHT22;38043;53.224;6.580;2023-10-31T07:29:07;10.20;99.90
52030;DHT22;38043;53.224;6.580;2023-10-31T07:31:34;10.10;99.90
52030;DHT22;38043;53.224;6.580;2023-10-31T07:34:06;10.20;99.90
52030;DHT22;38043;53.224;6.580;2023-10-31T07:36:34;10.20;99.90
52030;DHT22;38043;53.224;6.580;2023-10-31T07:39:03;10.20;99.90
52030;DHT22;38043;53.224;6.580;2023-10-31T07:41:29;10.20;99.90
52030;DHT22;38043;53.224;6.580;2023-10-31T07:43:55;10.20;99.90
52030;DHT22;38043;53.224;6.580;2023-10-31T07:46:21;10.30;99.90
52030;DHT22;38043;53.224;6.580;2023-10-31T07:48:46;10.30;99.90
52030;DHT22;38043;53.224;6.580;2023-10-31T07:51:12;10.30;99.90
52030;DHT22;38043;53.224;6.580;2023-10-31T07:53:38;10.30;99.90
52030;DHT22;38043;53.224;6.580;2023-10-31T07:56:04;10.30;99.90
52030;DHT22;38043;53.224;6.580;2023-10-31T07:58:29;10.40;99.90
52030;DHT22;38043;53.224;6.580;2023-10-31T08:00:59;10.40;99.90
52030;DHT22;38043;53.224;6.580;2023-10-31T08:03:24;10.40;99.90
52030;DHT22;38043;53.224;6.580;2023-10-31T08:05:51;10.40;99.90
52030;DHT22;38043;53.224;6.580;2023-10-31T08:08:16;10.50;99.90
52030;DHT22;38043;53.224;6.580;2023-10-31T08:10:42;10.50;99.90
52030;DHT22;38043;53.224;6.580;2023-10-31T08:13:08;10.50;99.90
52030;DHT22;38043;53.224;6.580;2023-10-31T08:15:33;10.60;99.90
52030;DHT22;38043;53.224;6.580;2023-10-31T08:18:02;10.60;99.90
52030;DHT22;38043;53.224;6.580;2023-10-31T08:20:27;10.70;99.90
52030;DHT22;38043;53.224;6.580;2023-10-31T08:22:58;10.70;99.90
52030;DHT22;38043;53.224;6.580;2023-10-31T08:25:23;10.80;99.90
52030;DHT22;38043;53.224;6.580;2023-10-31T08:27:49;10.90;99.90
52030;DHT22;38043;53.224;6.580;2023-10-31T08:30:15;10.80;99.90
52030;DHT22;38043;53.224;6.580;2023-10-31T08:32:44;10.90;99.90
52030;DHT22;38043;53.224;6.580;2023-10-31T08:35:09;10.90;99.90
52030;DHT22;38043;53.224;6.580;2023-10-31T08:37:35;10.90;99.90
52030;DHT22;38043;53.224;6.580;2023-10-31T08:40:01;11.00;99.90
52030;DHT22;38043;53.224;6.580;2023-10-31T08:42:29;10.90;99.90
52030;DHT22;38043;53.224;6.580;2023-10-31T08:44:57;11.90;99.90
52030;DHT22;38043;53.224;6.580;2023-10-31T08:47:23;11.20;99.90
52030;DHT22;38043;53.224;6.580;2023-10-31T08:49:49;11.00;99.90
52030;DHT22;38043;53.224;6.580;2023-10-31T08:52:14;11.10;99.90
52030;DHT22;38043;53.224;6.580;2023-10-31T08:54:40;11.20;99.90
52030;DHT22;38043;53.224;6.580;2023-10-31T08:57:06;11.20;99.90
52030;DHT22;38043;53.224;6.580;2023-10-31T08:59:32;11.80;99.90
52030;DHT22;38043;53.224;6.580;2023-10-31T09:02:01;11.30;99.90
52030;DHT22;38043;53.224;6.580;2023-10-31T09:04:26;11.30;99.90
52030;DHT22;38043;53.224;6.580;2023-10-31T09:06:52;11.30;99.90
52030;DHT22;38043;53.224;6.580;2023-10-31T09:09:20;11.20;99.90
52030;DHT22;38043;53.224;6.580;2023-10-31T09:11:46;11.40;99.90
52030;DHT22;38043;53.224;6.580;2023-10-31T09:14:12;11.10;99.90
52030;DHT22;38043;53.224;6.580;2023-10-31T09:16:37;11.00;99.90
52030;DHT22;38043;53.224;6.580;2023-10-31T09:19:03;11.00;99.90
52030;DHT22;38043;53.224;6.580;2023-10-31T09:21:31;10.90;99.90
52030;DHT22;38043;53.224;6.580;2023-10-31T09:23:56;10.10;99.90
52030;DHT22;38043;53.224;6.580;2023-10-31T09:26:22;11.10;99.90
52030;DHT22;38043;53.224;6.580;2023-10-31T09:28:48;10.80;99.90
52030;DHT22;38043;53.224;6.580;2023-10-31T09:31:17;10.90;99.90
52030;DHT22;38043;53.224;6.580;2023-10-31T09:33:43;10.80;99.90
52030;DHT22;38043;53.224;6.580;2023-10-31T09:36:09;10.70;99.90
52030;DHT22;38043;53.224;6.580;2023-10-31T09:38:35;10.70;99.90
52030;DHT22;38043;53.224;6.580;2023-10-31T09:41:01;10.70;99.90
52030;DHT22;38043;53.224;6.580;2023-10-31T09:43:27;10.70;99.90
52030;DHT22;38043;53.224;6.580;2023-10-31T09:45:54;10.70;99.90
52030;DHT22;38043;53.224;6.580;2023-10-31T09:48:23;10.70;99.90
52030;DHT22;38043;53.224;6.580;2023-10-31T09:50:49;10.70;99.90
52030;DHT22;38043;53.224;6.580;2023-10-31T09:53:15;11.00;99.90
52030;DHT22;38043;53.224;6.580;2023-10-31T09:55:45;11.20;99.90
52030;DHT22;38043;53.224;6.580;2023-10-31T09:58:11;11.30;99.90
52030;DHT22;38043;53.224;6.580;2023-10-31T10:00:37;11.40;99.90
52030;DHT22;38043;53.224;6.580;2023-10-31T10:03:07;11.70;99.90
52030;DHT22;38043;53.224;6.580;2023-10-31T10:05:35;11.80;99.90
52030;DHT22;38043;53.224;6.580;2023-10-31T10:08:01;11.80;99.90
52030;DHT22;38043;53.224;6.580;2023-10-31T10:10:27;11.70;99.90
52030;DHT22;38043;53.224;6.580;2023-10-31T10:12:55;11.60;99.90
52030;DHT22;38043;53.224;6.580;2023-10-31T10:15:21;11.60;99.90
52030;DHT22;38043;53.224;6.580;2023-10-31T10:17:51;11.60;99.90
52030;DHT22;38043;53.224;6.580;2023-10-31T10:20:17;11.80;99.90
52030;DHT22;38043;53.224;6.580;2023-10-31T10:22:47;12.00;99.90
52030;DHT22;38043;53.224;6.580;2023-10-31T10:25:14;12.20;99.90
52030;DHT22;38043;53.224;6.580;2023-10-31T10:27:47;12.30;99.90
52030;DHT22;38043;53.224;6.580;2023-10-31T10:30:14;12.20;99.90
52030;DHT22;38043;53.224;6.580;2023-10-31T10:32:40;11.90;99.90
52030;DHT22;38043;53.224;6.580;2023-10-31T10:35:07;11.80;99.90
52030;DHT22;38043;53.224;6.580;2023-10-31T10:37:37;11.80;99.90
52030;DHT22;38043;53.224;6.580;2023-10-31T10:40:05;11.80;99.90
52030;DHT22;38043;53.224;6.580;2023-10-31T10:42:32;11.70;99.90
52030;DHT22;38043;53.224;6.580;2023-10-31T10:45:04;11.60;99.90
52030;DHT22;38043;53.224;6.580;2023-10-31T10:47:34;11.50;99.90
52030;DHT22;38043;53.224;6.580;2023-10-31T10:50:06;11.40;99.90
52030;DHT22;38043;53.224;6.580;2023-10-31T10:52:50;11.40;99.90
52030;DHT22;38043;53.224;6.580;2023-10-31T10:55:21;11.50;99.90
52030;DHT22;38043;53.224;6.580;2023-10-31T10:58:05;11.30;99.90
52030;DHT22;38043;53.224;6.580;2023-10-31T11:00:32;11.20;99.90
52030;DHT22;38043;53.224;6.580;2023-10-31T11:03:03;11.50;99.90
52030;DHT22;38043;53.224;6.580;2023-10-31T11:05:30;11.20;99.90
52030;DHT22;38043;53.224;6.580;2023-10-31T11:07:57;11.20;99.90
52030;DHT22;38043;53.224;6.580;2023-10-31T11:10:23;11.30;99.90
52030;DHT22;38043;53.224;6.580;2023-10-31T11:12:49;11.40;99.90
52030;DHT22;38043;53.224;6.580;2023-10-31T11:15:18;11.40;99.90
52030;DHT22;38043;53.224;6.580;2023-10-31T11:17:46;11.50;99.90
52030;DHT22;38043;53.224;6.580;2023-10-31T11:20:14;11.50;99.90
52030;DHT22;38043;53.224;6.580;2023-10-31T11:22:45;11.50;99.90
52030;DHT22;38043;53.224;6.580;2023-10-31T11:25:18;11.50;99.90
52030;DHT22;38043;53.224;6.580;2023-10-31T11:27:52;11.50;99.90
52030;DHT22;38043;53.224;6.580;2023-10-31T11:30:26;11.40;99.90
52030;DHT22;38043;53.224;6.580;2023-10-31T11:32:59;11.40;99.90
52030;DHT22;38043;53.224;6.580;2023-10-31T11:35:29;11.30;99.90
52030;DHT22;38043;53.224;6.580;2023-10-31T11:38:06;11.30;99.90
52030;DHT22;38043;53.224;6.580;2023-10-31T11:40:37;11.30;99.90
52030;DHT22;38043;53.224;6.580;2023-10-31T11:43:05;11.80;99.90
52030;DHT22;38043;53.224;6.580;2023-10-31T11:45:43;11.20;99.90
52030;DHT22;38043;53.224;6.580;2023-10-31T11:48:16;11.20;99.90
52030;DHT22;38043;53.224;6.580;2023-10-31T11:50:42;11.20;99.90
52030;DHT22;38043;53.224;6.580;2023-10-31T11:53:09;11.20;99.90
52030;DHT22;38043;53.224;6.580;2023-10-31T11:55:45;11.30;99.90
52030;DHT22;38043;53.224;6.580;2023-10-31T11:58:22;11.10;99.90
52030;DHT22;38043;53.224;6.580;2023-10-31T12:01:00;11.20;99.90
52030;DHT22;38043;53.224;6.580;2023-10-31T12:03:26;12.00;99.90
52030;DHT22;38043;53.224;6.580;2023-10-31T12:05:56;11.20;99.90
52030;DHT22;38043;53.224;6.580;2023-10-31T12:08:33;11.30;99.90
52030;DHT22;38043;53.224;6.580;2023-10-31T12:11:20;11.30;99.90
52030;DHT22;38043;53.224;6.580;2023-10-31T12:14:02;11.30;99.90
52030;DHT22;38043;53.224;6.580;2023-10-31T12:16:33;11.40;99.90
52030;DHT22;38043;53.224;6.580;2023-10-31T12:19:04;11.30;99.90
52030;DHT22;38043;53.224;6.580;2023-10-31T12:21:48;11.20;99.90
52030;DHT22;38043;53.224;6.580;2023-10-31T12:24:17;11.20;99.90
52030;DHT22;38043;53.224;6.580;2023-10-31T12:26:43;12.20;99.90
52030;DHT22;38043;53.224;6.580;2023-10-31T12:29:20;11.10;99.90
52030;DHT22;38043;53.224;6.580;2023-10-31T12:31:50;11.10;99.90
52030;DHT22;38043;53.224;6.580;2023-10-31T12:34:19;11.00;99.90
52030;DHT22;38043;53.224;6.580;2023-10-31T12:36:50;11.10;99.90
52030;DHT22;38043;53.224;6.580;2023-10-31T12:39:20;11.00;99.90
52030;DHT22;38043;53.224;6.580;2023-10-31T12:41:47;11.00;99.90
52030;DHT22;38043;53.224;6.580;2023-10-31T12:44:24;10.80;99.90
52030;DHT22;38043;53.224;6.580;2023-10-31T12:46:50;10.70;99.90
52030;DHT22;38043;53.224;6.580;2023-10-31T12:49:19;10.70;99.90
52030;DHT22;38043;53.224;6.580;2023-10-31T12:51:58;10.60;99.90
52030;DHT22;38043;53.224;6.580;2023-10-31T12:54:29;10.60;99.90
52030;DHT22;38043;53.224;6.580;2023-10-31T12:57:00;10.60;99.90
52030;DHT22;38043;53.224;6.580;2023-10-31T12:59:27;10.50;99.90
52030;DHT22;38043;53.224;6.580;2023-10-31T13:01:53;10.40;99.90
52030;DHT22;38043;53.224;6.580;2023-10-31T13:04:28;10.40;99.90
52030;DHT22;38043;53.224;6.580;2023-10-31T13:06:58;10.30;99.90
52030;DHT22;38043;53.224;6.580;2023-10-31T13:09:28;10.30;99.90
52030;DHT22;38043;53.224;6.580;2023-10-31T13:11:57;10.20;99.90
52030;DHT22;38043;53.224;6.580;2023-10-31T13:14:24;10.20;99.90
52030;DHT22;38043;53.224;6.580;2023-10-31T13:16:49;10.20;99.90
52030;DHT22;38043;53.224;6.580;2023-10-31T13:19:15;10.20;99.90
52030;DHT22;38043;53.224;6.580;2023-10-31T13:21:41;10.20;99.90
52030;DHT22;38043;53.224;6.580;2023-10-31T13:24:10;10.60;99.90
52030;DHT22;38043;53.224;6.580;2023-10-31T13:26:36;10.20;99.90
52030;DHT22;38043;53.224;6.580;2023-10-31T13:29:01;10.10;99.90
52030;DHT22;38043;53.224;6.580;2023-10-31T13:31:27;10.20;99.90
52030;DHT22;38043;53.224;6.580;2023-10-31T13:33:53;10.10;99.90
52030;DHT22;38043;53.224;6.580;2023-10-31T13:36:18;10.10;99.90
52030;DHT22;38043;53.224;6.580;2023-10-31T13:38:45;10.10;99.90
52030;DHT22;38043;53.224;6.580;2023-10-31T13:41:12;10.10;99.90
52030;DHT22;38043;53.224;6.580;2023-10-31T13:43:37;10.20;99.90
52030;DHT22;38043;53.224;6.580;2023-10-31T13:46:03;10.10;99.90
52030;DHT22;38043;53.224;6.580;2023-10-31T13:48:30;10.20;99.90
52030;DHT22;38043;53.224;6.580;2023-10-31T13:50:55;10.90;99.90
52030;DHT22;38043;53.224;6.580;2023-10-31T13:53:21;10.30;99.90
52030;DHT22;38043;53.224;6.580;2023-10-31T13:55:47;10.30;99.90
52030;DHT22;38043;53.224;6.580;2023-10-31T13:58:14;10.30;99.90
52030;DHT22;38043;53.224;6.580;2023-10-31T14:00:43;10.30;99.90
52030;DHT22;38043;53.224;6.580;2023-10-31T14:03:11;10.30;99.90
52030;DHT22;38043;53.224;6.580;2023-10-31T14:05:36;10.30;99.90
52030;DHT22;38043;53.224;6.580;2023-10-31T14:08:02;10.30;99.90
52030;DHT22;38043;53.224;6.580;2023-10-31T14:10:28;10.30;99.90
52030;DHT22;38043;53.224;6.580;2023-10-31T14:12:56;10.50;99.90
52030;DHT22;38043;53.224;6.580;2023-10-31T14:15:22;10.40;99.90
52030;DHT22;38043;53.224;6.580;2023-10-31T14:17:48;10.40;99.90
52030;DHT22;38043;53.224;6.580;2023-10-31T14:20:17;10.30;99.90
52030;DHT22;38043;53.224;6.580;2023-10-31T14:22:49;10.30;99.90
52030;DHT22;38043;53.224;6.580;2023-10-31T14:25:15;10.30;99.90
52030;DHT22;38043;53.224;6.580;2023-10-31T14:27:42;10.30;99.90
52030;DHT22;38043;53.224;6.580;2023-10-31T14:30:09;10.30;99.90
52030;DHT22;38043;53.224;6.580;2023-10-31T14:32:35;10.30;99.90
52030;DHT22;38043;53.224;6.580;2023-10-31T14:35:01;10.30;99.90
52030;DHT22;38043;53.224;6.580;2023-10-31T14:37:27;10.30;99.90
52030;DHT22;38043;53.224;6.580;2023-10-31T14:39:53;10.70;99.90
52030;DHT22;38043;53.224;6.580;2023-10-31T14:42:19;10.20;99.90
52030;DHT22;38043;53.224;6.580;2023-10-31T14:44:46;10.10;99.90
52030;DHT22;38043;53.224;6.580;2023-10-31T14:47:11;10.10;99.90
52030;DHT22;38043;53.224;6.580;2023-10-31T14:49:37;10.00;99.90
52030;DHT22;38043;53.224;6.580;2023-10-31T14:52:03;10.00;99.90
52030;DHT22;38043;53.224;6.580;2023-10-31T14:54:30;9.90;99.90
52030;DHT22;38043;53.224;6.580;2023-10-31T14:56:56;9.90;99.90
52030;DHT22;38043;53.224;6.580;2023-10-31T14:59:22;9.90;99.90
52030;DHT22;38043;53.224;6.580;2023-10-31T15:01:48;9.90;99.90
52030;DHT22;38043;53.224;6.580;2023-10-31T15:04:14;9.90;99.90
52030;DHT22;38043;53.224;6.580;2023-10-31T15:06:42;9.80;99.90
52030;DHT22;38043;53.224;6.580;2023-10-31T15:09:09;9.80;99.90
52030;DHT22;38043;53.224;6.580;2023-10-31T15:11:38;10.40;99.90
52030;DHT22;38043;53.224;6.580;2023-10-31T15:14:04;9.80;99.90
52030;DHT22;38043;53.224;6.580;2023-10-31T15:16:30;9.80;99.90
52030;DHT22;38043;53.224;6.580;2023-10-31T15:18:57;9.80;99.90
52030;DHT22;38043;53.224;6.580;2023-10-31T15:21:22;9.80;99.90
52030;DHT22;38043;53.224;6.580;2023-10-31T15:23:48;9.80;99.90
52030;DHT22;38043;53.224;6.580;2023-10-31T15:26:14;9.80;99.90
52030;DHT22;38043;53.224;6.580;2023-10-31T15:28:41;9.80;99.90
52030;DHT22;38043;53.224;6.580;2023-10-31T15:31:08;9.80;99.90
52030;DHT22;38043;53.224;6.580;2023-10-31T15:33:33;9.80;99.90